Time;durP1;ratioP1;P1;durP2;ratioP2;P2;SDS_P1;SDS_P2;PMS_P1;PMS_P2;Temp;Humidity;BMP_temperature;BMP_pressure;BME280_temperature;BME280_humidity;BME280_pressure;Samples;Min_cycle;Max_cycle;Signal;HPM_P1;HPM_P2
2022/04/21 00:01:43;;;;;;;1.00;0.60;;;;;;;;;;20918404;28;20233;-73
2022/04/21 00:11:45;;;;;;;1.03;0.80;;;;;;;;;;20915854;28;20222;-75
2022/04/21 00:32:07;;;;;;;0.97;0.53;;;;;;;;;;20914040;28;20272;-74
2022/04/21 00:42:08;;;;;;;2.37;0.80;;;;;;;;;;20969354;28;20255;-74
2022/04/21 00:52:10;;;;;;;1.00;0.60;;;;;;;;;;20996972;28;20578;-74
2022/04/21 01:12:33;;;;;;;1.10;0.70;;;;;;;;;;21082454;22;20255;-66
2022/04/21 01:22:35;;;;;;;0.80;0.60;;;13.20;99.90;;;;;;20860909;28;20593;-66
2022/04/21 01:32:42;;;;;;;1.27;0.70;;;13.00;99.90;;;;;;20873568;28;20303;-66
2022/04/21 01:42:44;;;;;;;0.80;0.60;;;;;;;;;;20836268;28;20218;-66
2022/04/21 01:52:46;;;;;;;1.60;0.60;;;;;;;;;;20806743;28;20597;-66
2022/04/21 02:02:48;;;;;;;0.90;0.60;;;;;;;;;;20843940;28;20249;-66
2022/04/21 02:12:50;;;;;;;0.90;0.70;;;12.60;99.90;;;;;;20867517;28;20288;-66
2022/04/21 02:22:52;;;;;;;1.20;0.80;;;;;;;;;;20859145;28;20241;-66
2022/04/21 02:32:54;;;;;;;1.63;0.77;;;;;;;;;;20874167;28;20245;-65
2022/04/21 02:42:59;;;;;;;1.93;0.63;;;;;;;;;;20857105;28;20237;-66
2022/04/21 02:53:02;;;;;;;0.93;0.60;;;;;;;;;;20873171;28;20210;-66
2022/04/21 03:03:04;;;;;;;2.00;0.50;;;;;;;;;;20871655;28;20576;-66
2022/04/21 03:13:07;;;;;;;1.23;0.80;;;;;;;;;;20872458;28;20253;-66
2022/04/21 03:33:34;;;;;;;0.70;0.63;;;12.00;99.90;;;;;;20871782;28;20213;-65
2022/04/21 03:43:36;;;;;;;0.73;0.60;;;;;;;;;;20838858;28;20225;-66
2022/04/21 03:53:38;;;;;;;1.70;0.70;;;;;;;;;;20854384;28;20206;-65
2022/04/21 04:03:40;;;;;;;2.10;0.80;;;;;;;;;;20869791;28;20229;-66
2022/04/21 04:13:42;;;;;;;2.40;0.73;;;;;;;;;;20881679;28;20226;-65
2022/04/21 04:23:44;;;;;;;1.40;0.77;;;;;;;;;;20884140;28;20264;-66
2022/04/21 04:33:46;;;;;;;1.50;0.70;;;;;;;;;;20851570;28;20261;-65
2022/04/21 04:43:47;;;;;;;2.90;0.60;;;;;;;;;;20866350;28;20218;-66
2022/04/21 04:53:49;;;;;;;2.37;0.90;;;;;;;;;;20865597;28;20205;-66
2022/04/21 05:04:00;;;;;;;1.80;0.80;;;;;;;;;;20878143;28;20230;-66
2022/04/21 05:14:02;;;;;;;1.97;0.80;;;11.50;99.90;;;;;;20880544;28;20217;-66
2022/04/21 05:24:06;;;;;;;1.90;0.87;;;11.40;99.90;;;;;;20875268;28;20279;-66
2022/04/21 05:34:08;;;;;;;1.60;1.00;;;;;;;;;;20862119;28;20573;-66
2022/04/21 05:44:10;;;;;;;3.17;1.30;;;11.90;99.90;;;;;;20861861;28;20284;-66
2022/04/21 05:54:12;;;;;;;1.70;0.73;;;13.80;99.90;;;;;;20854002;28;20689;-66
2022/04/21 06:04:14;;;;;;;2.40;1.07;;;;;;;;;;20796809;28;20922;-66
2022/04/21 06:14:16;;;;;;;1.20;0.90;;;;;;;;;;20870555;28;20268;-66
2022/04/21 06:24:19;;;;;;;6.40;1.17;;;;;;;;;;20858212;28;20222;-66
2022/04/21 06:34:22;;;;;;;1.90;0.90;;;;;;;;;;20852505;28;20673;-66
2022/04/21 06:54:45;;;;;;;1.70;1.07;;;;;;;;;;20823920;28;20264;-66
2022/04/21 07:04:47;;;;;;;2.40;1.30;;;;;;;;;;20804776;28;20227;-66
2022/04/21 07:14:49;;;;;;;2.20;1.03;;;;;;;;;;20864100;22;20228;-75
2022/04/21 07:24:57;;;;;;;4.67;1.40;;;14.00;99.90;;;;;;21021113;28;21040;-75
2022/04/21 07:35:00;;;;;;;3.37;1.30;;;14.20;99.90;;;;;;20945265;28;20206;-75
2022/04/21 07:45:02;;;;;;;2.50;1.20;;;14.10;99.90;;;;;;20899938;28;20268;-75
2022/04/21 07:55:04;;;;;;;2.10;1.23;;;;;;;;;;20908247;28;20553;-75
2022/04/21 08:05:06;;;;;;;6.03;2.03;;;14.00;99.90;;;;;;21023582;28;20245;-75
2022/04/21 08:15:09;;;;;;;2.97;1.40;;;;;;;;;;21048726;28;20270;-74
2022/04/21 08:35:31;;;;;;;2.37;1.50;;;;;;;;;;21079797;28;20675;-74
2022/04/21 08:45:32;;;;;;;2.77;1.33;;;;;;;;;;21064081;28;20269;-73
2022/04/21 08:55:35;;;;;;;1.67;1.10;;;;;;;;;;21061013;28;20592;-73
2022/04/21 09:05:36;;;;;;;3.03;1.30;;;;;;;;;;21077836;28;20548;-73
2022/04/21 09:15:43;;;;;;;2.40;1.33;;;;;;;;;;21079056;28;20212;-73
2022/04/21 09:25:44;;;;;;;4.20;1.40;;;;;;;;;;21077713;28;20285;-74
2022/04/21 09:35:46;;;;;;;2.10;1.40;;;;;;;;;;21075817;28;20314;-74
2022/04/21 09:56:08;;;;;;;1.80;1.10;;;15.80;99.90;;;;;;21074723;28;20212;-74
2022/04/21 10:06:10;;;;;;;3.70;1.27;;;;;;;;;;21074325;28;20289;-74
2022/04/21 10:16:16;;;;;;;1.47;1.00;;;;;;;;;;21073567;28;20281;-74
2022/04/21 10:26:35;;;;;;;2.33;1.50;;;17.80;99.90;;;;;;21054640;28;20224;-74
2022/04/21 10:36:47;;;;;;;1.67;1.10;;;18.20;99.90;;;;;;21071027;28;20380;-74
2022/04/21 10:46:48;;;;;;;1.20;0.80;;;;;;;;;;21054295;28;20277;-74
2022/04/21 11:07:12;;;;;;;1.80;1.30;;;18.00;96.90;;;;;;21070094;28;20379;-74
2022/04/21 11:17:15;;;;;;;1.13;0.90;;;18.10;99.90;;;;;;21074062;28;20588;-74
2022/04/21 11:27:17;;;;;;;1.73;1.20;;;;;;;;;;21086926;28;20625;-74
2022/04/21 11:37:19;;;;;;;1.33;0.80;;;;;;;;;;21085246;28;20575;-74
2022/04/21 11:47:21;;;;;;;1.33;0.83;;;;;;;;;;21084882;28;20649;-74
2022/04/21 11:57:44;;;;;;;0.97;0.73;;;18.60;97.40;;;;;;21084123;28;20209;-74
2022/04/21 12:07:48;;;;;;;3.07;1.00;;;;;;;;;;21066269;28;20212;-74
2022/04/21 12:17:51;;;;;;;1.43;0.60;;;;;;;;;;21083401;28;20266;-74
2022/04/21 12:27:52;;;;;;;1.33;0.70;;;;;;;;;;21062000;28;20216;-74
2022/04/21 12:38:50;;;;;;;2.00;0.90;;;;;;;;;;21081841;28;20201;-75
2022/04/21 12:48:26;;;;;;;0.90;0.70;;;18.90;99.60;;;;;;21065113;28;20274;-75
2022/04/21 12:58:32;;;;;;;1.33;0.50;;;;;;;;;;21062428;28;20537;-75
2022/04/21 13:08:34;;;;;;;1.07;0.67;;;;;;;;;;21061756;28;20596;-74
2022/04/21 13:18:36;;;;;;;1.10;0.73;;;;;;;;;;21062016;22;20225;-67
2022/04/21 13:28:37;;;;;;;1.37;0.67;;;;;;;;;;20960916;28;20626;-67
2022/04/21 13:38:39;;;;;;;4.23;0.80;;;;;;;;;;20944350;28;20279;-67
2022/04/21 13:48:41;;;;;;;0.83;0.70;;;;;;;;;;20943971;28;20221;-67
2022/04/21 13:58:43;;;;;;;1.63;0.60;;;;;;;;;;20959318;28;20206;-67
2022/04/21 14:08:47;;;;;;;1.30;0.73;;;;;;;;;;20942095;28;20221;-67
2022/04/21 14:18:49;;;;;;;0.50;0.40;;;;;;;;;;20957169;28;20229;-67
2022/04/21 14:28:51;;;;;;;2.07;0.87;;;;;;;;;;20941123;28;20233;-67
2022/04/21 14:49:16;;;;;;;0.83;0.60;;;18.00;99.90;;;;;;20957955;28;20238;-67
2022/04/21 14:59:22;;;;;;;1.13;0.70;;;;;;;;;;20937894;28;20201;-67
2022/04/21 15:09:23;;;;;;;0.90;0.60;;;;;;;;;;20938105;28;20262;-67
2022/04/21 15:19:25;;;;;;;2.20;0.60;;;;;;;;;;20970745;28;20221;-67
2022/04/21 15:29:27;;;;;;;2.60;0.70;;;;;;;;;;20937254;28;20201;-67
2022/04/21 15:39:29;;;;;;;2.03;0.83;;;;;;;;;;20969606;28;20221;-67
2022/04/21 15:49:32;;;;;;;0.70;0.50;;;;;;;;;;20952620;28;20440;-67
2022/04/21 15:59:34;;;;;;;1.17;0.60;;;;;;;;;;20953169;28;20205;-67
2022/04/21 16:09:36;;;;;;;1.10;0.70;;;17.70;99.00;;;;;;20948434;28;20194;-67
2022/04/21 16:19:38;;;;;;;0.47;0.43;;;;;;;;;;20966507;28;20228;-67
2022/04/21 16:29:40;;;;;;;1.67;0.60;;;;;;;;;;20949519;28;20201;-67
2022/04/21 16:39:43;;;;;;;2.70;0.57;;;;;;;;;;20965046;28;20197;-67
2022/04/21 16:49:45;;;;;;;1.17;0.87;;;;;;;;;;20948593;28;20209;-67
2022/04/21 16:59:47;;;;;;;1.30;0.70;;;;;;;;;;20947411;28;20209;-67
2022/04/21 17:09:49;;;;;;;2.83;0.80;;;;;;;;;;20946597;28;20209;-67
2022/04/21 17:19:51;;;;;;;0.57;0.40;;;;;;;;;;20960874;28;20225;-67
2022/04/21 17:29:53;;;;;;;0.77;0.50;;;;;;;;;;20944641;28;20560;-67
2022/04/21 17:39:56;;;;;;;0.53;0.40;;;;;;;;;;20943590;28;20278;-67
2022/04/21 17:49:58;;;;;;;1.43;0.50;;;;;;;;;;20943435;28;20266;-67
2022/04/21 18:00:00;;;;;;;1.27;0.50;;;;;;;;;;20958794;28;20209;-67
2022/04/21 18:10:02;;;;;;;2.30;0.60;;;;;;;;;;20942509;28;20205;-67
2022/04/21 18:20:04;;;;;;;1.00;0.40;;;16.80;99.40;;;;;;20942445;28;20278;-66
2022/04/21 18:30:07;;;;;;;2.03;0.60;;;16.70;99.90;;;;;;20955932;28;20262;-66
2022/04/21 18:40:10;;;;;;;1.80;0.90;;;16.60;99.90;;;;;;20955952;28;20229;-66
2022/04/21 18:50:12;;;;;;;0.70;0.50;;;16.40;98.10;;;;;;20939602;28;20209;-66
2022/04/21 19:00:16;;;;;;;1.03;0.40;;;;;;;;;;20938977;28;20232;-66
2022/04/21 19:10:18;;;;;;;0.60;0.50;;;;;;;;;;20955433;28;20572;-66
2022/04/21 19:20:20;;;;;;;1.43;0.70;;;16.10;99.20;;;;;;20957622;22;20229;-68
2022/04/21 19:30:23;;;;;;;0.80;0.60;;;;;;;;;;20974280;28;20217;-68
2022/04/21 19:40:26;;;;;;;0.87;0.57;;;;;;;;;;20963037;28;20260;-69
2022/04/21 19:50:29;;;;;;;1.17;0.80;;;;;;;;;;20955257;28;20234;-68
2022/04/21 20:00:32;;;;;;;2.57;0.60;;;;;;;;;;20986789;28;20294;-68
2022/04/21 20:10:33;;;;;;;0.90;0.60;;;;;;;;;;20969595;28;20259;-68
2022/04/21 20:30:55;;;;;;;1.17;0.83;;;;;;;;;;20984973;28;20200;-68
2022/04/21 20:40:58;;;;;;;2.97;1.07;;;;;;;;;;20951038;28;20275;-68
2022/04/21 20:51:00;;;;;;;1.20;0.83;;;15.50;99.90;;;;;;20969795;28;20255;-68
2022/04/21 21:01:02;;;;;;;1.80;1.00;;;;;;;;;;20951847;28;20217;-68
2022/04/21 21:11:04;;;;;;;1.77;1.10;;;;;;;;;;20950707;28;20209;-68
2022/04/21 21:21:06;;;;;;;0.77;0.60;;;;;;;;;;20949325;28;20275;-68
2022/04/21 21:31:08;;;;;;;1.30;0.90;;;;;;;;;;20947284;28;20462;-68
2022/04/21 21:41:10;;;;;;;2.10;0.93;;;;;;;;;;20962376;28;20248;-69
2022/04/21 22:01:32;;;;;;;1.73;1.10;;;;;;;;;;20959950;28;20688;-68
2022/04/21 22:11:35;;;;;;;1.40;0.90;;;14.40;99.90;;;;;;20961989;28;20263;-68
2022/04/21 22:21:37;;;;;;;1.20;0.70;;;;;;;;;;20945709;28;20271;-68
2022/04/21 22:31:39;;;;;;;2.07;1.10;;;;;;;;;;20960698;28;20197;-68
2022/04/21 22:41:43;;;;;;;1.50;1.00;;;;;;;;;;20943656;28;20221;-68
2022/04/21 22:51:44;;;;;;;1.50;1.00;;;;;;;;;;20941604;28;20205;-68
2022/04/21 23:01:48;;;;;;;1.83;0.97;;;;;;;;;;20957034;28;20711;-68
2022/04/21 23:22:13;;;;;;;1.53;0.90;;;13.90;99.90;;;;;;20925823;28;20229;-68
2022/04/21 23:32:15;;;;;;;1.90;1.20;;;;;;;;;;20955390;28;20270;-68
2022/04/21 23:42:17;;;;;;;2.80;1.60;;;;;;;;;;20957758;28;20585;-68
2022/04/21 23:52:19;;;;;;;3.03;1.87;;;;;;;;;;20940492;28;20243;-68
